Parchment, Michigan
Current Conditions -  °F | °C
As of 11:53 AM on Saturday 25 Oct 2014 (Local Time) from KAZO Reporting Station
Haze Haze  
Wind Chill: 60°   Ceiling: 1600
Heat Index: 60°   Visibility: 6mi
Dew Point: 53°   Wind: 12mph
Humidity: 78%   Direction: 280°W
Pressure: 29.88"   Gusts: NA
Location:  42.3411°N, 85.532°W
Report Text: KAZO 251553Z 28010KT 6SM HZ BKN016 OVC023 16/12 A2988 RMK AO2 SLP121 T01560117
Loading
Personal Weather Stations






























Interactive Weather Map
Tropical Storm Tracking
New forecast layout! Learn more

10-Day Weather Forecast

Advertisements
Track Severe Weather on mobile